| time (UTC) | temp F | wind direction | speed MPH | gust MPH | rain 1hr in | rain 24hr in | rain mn in | humidity % | barometer mb |
| 20260506201806 | 65 | 205 | 3.0 | 10.0 | 0.00 | 0.18 | 0.18 | 83 | 1007.0 |
| 20260506201305 | 65 | 248 | 6.0 | 10.0 | 0.00 | 0.18 | 0.18 | 84 | 1007.0 |
| 20260506200805 | 65 | 221 | 5.0 | 8.0 | 0.00 | 0.18 | 0.18 | 83 | 1007.1 |
| 20260506200305 | 65 | 236 | 3.0 | 7.0 | 0.00 | 0.18 | 0.18 | 84 | 1007.1 |
| 20260506195805 | 65 | 227 | 3.0 | 7.0 | 0.00 | 0.18 | 0.18 | 83 | 1007.2 |
| 20260506195306 | 65 | 234 | 3.0 | 9.0 | 0.00 | 0.18 | 0.18 | 84 | 1007.2 |
| 20260506194805 | 65 | 213 | 2.0 | 5.0 | 0.00 | 0.18 | 0.18 | 83 | 1007.2 |
| 20260506194305 | 65 | 213 | 3.0 | 8.0 | 0.00 | 0.18 | 0.18 | 84 | 1007.2 |
| 20260506193806 | 65 | 240 | 3.0 | 12.0 | 0.00 | 0.18 | 0.18 | 83 | 1007.2 |
| 20260506193306 | 65 | 242 | 3.0 | 9.0 | 0.00 | 0.18 | 0.18 | 84 | 1007.2 |
| 20260506192806 | 65 | 237 | 5.0 | 9.0 | 0.00 | 0.18 | 0.18 | 83 | 1007.2 |
| 20260506192306 | 65 | 270 | 5.0 | 13.0 | 0.00 | 0.18 | 0.18 | 83 | 1007.2 |
| 20260506191806 | 66 | 235 | 9.0 | 13.0 | 0.00 | 0.18 | 0.18 | 83 | 1007.2 |
| 20260506191305 | 65 | 219 | 4.0 | 9.0 | 0.00 | 0.18 | 0.18 | 86 | 1007.3 |
| 20260506190805 | 64 | 237 | 2.0 | 9.0 | 0.00 | 0.18 | 0.18 | 86 | 1007.3 |
| 20260506190306 | 64 | 238 | 6.0 | 12.0 | 0.00 | 0.18 | 0.18 | 86 | 1007.5 |
| 20260506185307 | 64 | 249 | 6.0 | 12.0 | 0.00 | 0.18 | 0.18 | 86 | 1007.4 |
| 20260506184805 | 64 | 239 | 4.0 | 13.0 | 0.00 | 0.18 | 0.18 | 86 | 1007.5 |
| 20260506184306 | 64 | 203 | 7.0 | 17.0 | 0.00 | 0.18 | 0.18 | 87 | 1007.5 |
| 20260506183805 | 64 | 188 | 5.0 | 12.0 | 0.00 | 0.18 | 0.18 | 88 | 1007.5 |
| 20260506183305 | 63 | 207 | 8.0 | 16.0 | 0.00 | 0.18 | 0.18 | 88 | 1007.6 |
| 20260506182805 | 63 | 255 | 8.0 | 12.0 | 0.00 | 0.18 | 0.18 | 88 | 1007.7 |
| 20260506182307 | 62 | 247 | 5.0 | 12.0 | 0.00 | 0.18 | 0.18 | 88 | 1007.7 |
| 20260506181805 | 62 | 242 | 6.0 | 12.0 | 0.00 | 0.18 | 0.18 | 88 | 1007.8 |
| 20260506181305 | 62 | 204 | 6.0 | 15.0 | 0.00 | 0.18 | 0.18 | 88 | 1007.9 |
| 20260506180805 | 62 | 222 | 7.0 | 17.0 | 0.00 | 0.18 | 0.18 | 87 | 1007.9 |
| 20260506180305 | 62 | 225 | 3.0 | 16.0 | 0.00 | 0.18 | 0.18 | 87 | 1008.0 |
| 20260506175806 | 62 | 238 | 6.0 | 12.0 | 0.00 | 0.18 | 0.18 | 87 | 1008.0 |
| 20260506175306 | 62 | 216 | 3.0 | 17.0 | 0.00 | 0.18 | 0.18 | 88 | 1008.1 |
| 20260506174805 | 61 | 200 | 9.0 | 18.0 | 0.00 | 0.18 | 0.18 | 88 | 1008.0 |
| 20260506174305 | 61 | 196 | 4.0 | 12.0 | 0.00 | 0.18 | 0.18 | 88 | 1008.0 |
| 20260506173306 | 61 | 212 | 6.0 | 12.0 | 0.00 | 0.18 | 0.18 | 88 | 1008.0 |
| 20260506172805 | 61 | 233 | 4.0 | 13.0 | 0.00 | 0.18 | 0.18 | 88 | 1007.9 |
| 20260506172307 | 61 | 178 | 5.0 | 12.0 | 0.00 | 0.18 | 0.18 | 88 | 1007.9 |
| 20260506171805 | 61 | 259 | 5.0 | 10.0 | 0.00 | 0.18 | 0.18 | 88 | 1007.9 |
| 20260506171305 | 61 | 192 | 6.0 | 17.0 | 0.00 | 0.18 | 0.18 | 88 | 1007.9 |
| 20260506170805 | 61 | 186 | 5.0 | 12.0 | 0.00 | 0.18 | 0.18 | 88 | 1007.9 |
| 20260506165805 | 61 | 222 | 4.0 | 12.0 | 0.01 | 0.18 | 0.18 | 88 | 1007.9 |
| 20260506164806 | 61 | 185 | 6.0 | 12.0 | 0.01 | 0.18 | 0.18 | 88 | 1008.1 |
| 20260506164305 | 61 | 204 | 5.0 | 12.0 | 0.02 | 0.18 | 0.18 | 88 | 1008.0 |
| 20260506163805 | 61 | 245 | 3.0 | 12.0 | 0.03 | 0.18 | 0.18 | 88 | 1008.2 |
| 20260506163305 | 61 | 224 | 7.0 | 12.0 | 0.03 | 0.18 | 0.18 | 88 | 1008.2 |
| 20260506162805 | 62 | 148 | 5.0 | 12.0 | 0.03 | 0.18 | 0.18 | 88 | 1008.2 |
| 20260506161805 | 62 | 209 | 6.0 | 14.0 | 0.04 | 0.18 | 0.18 | 88 | 1008.1 |
| 20260506161305 | 62 | 200 | 8.0 | 21.0 | 0.05 | 0.18 | 0.18 | 88 | 1008.1 |
| 20260506160805 | 62 | 185 | 9.0 | 21.0 | 0.05 | 0.18 | 0.18 | 88 | 1008.0 |
| 20260506160305 | 62 | 214 | 4.0 | 12.0 | 0.06 | 0.18 | 0.18 | 89 | 1007.8 |
| 20260506155805 | 61 | 159 | 9.0 | 21.0 | 0.05 | 0.17 | 0.17 | 89 | 1007.7 |
| 20260506155306 | 61 | 127 | 7.0 | 15.0 | 0.05 | 0.17 | 0.17 | 89 | 1007.4 |
| 20260506154805 | 61 | 149 | 6.0 | 16.0 | 0.06 | 0.17 | 0.17 | 88 | 1007.8 |
| 20260506154305 | 61 | 170 | 7.0 | 16.0 | 0.05 | 0.16 | 0.16 | 88 | 1008.1 |
| 20260506153805 | 61 | 159 | 6.0 | 12.0 | 0.04 | 0.15 | 0.15 | 88 | 1008.3 |
| 20260506152306 | 61 | 154 | 4.0 | 8.0 | 0.05 | 0.14 | 0.14 | 88 | 1008.8 |
| 20260506151305 | 61 | 199 | 3.0 | 10.0 | 0.06 | 0.13 | 0.13 | 88 | 1008.9 |
| 20260506150805 | 61 | 193 | 3.0 | 12.0 | 0.07 | 0.13 | 0.13 | 88 | 1008.9 |
| 20260506150305 | 61 | 219 | 6.0 | 14.0 | 0.07 | 0.12 | 0.12 | 88 | 1008.8 |
| 20260506145805 | 62 | 204 | 4.0 | 12.0 | 0.07 | 0.12 | 0.12 | 87 | 1009.0 |
| 20260506145306 | 62 | 199 | 6.0 | 12.0 | 0.07 | 0.12 | 0.12 | 87 | 1009.0 |
| 20260506144805 | 62 | 186 | 7.0 | 12.0 | 0.06 | 0.11 | 0.11 | 87 | 1008.9 |
| 20260506144305 | 62 | 171 | 6.0 | 14.0 | 0.06 | 0.11 | 0.11 | 87 | 1008.7 |
| 20260506143805 | 62 | 176 | 6.0 | 10.0 | 0.07 | 0.11 | 0.11 | 87 | 1008.7 |
| 20260506142805 | 62 | 167 | 5.0 | 14.0 | 0.06 | 0.10 | 0.10 | 87 | 1008.6 |
| 20260506142306 | 62 | 199 | 5.0 | 12.0 | 0.05 | 0.09 | 0.09 | 87 | 1008.6 |
| 20260506141805 | 62 | 204 | 4.0 | 9.0 | 0.05 | 0.08 | 0.08 | 87 | 1008.6 |
| 20260506141305 | 62 | 158 | 3.0 | 7.0 | 0.04 | 0.07 | 0.07 | 87 | 1008.5 |
| 20260506140805 | 62 | 134 | 6.0 | 9.0 | 0.04 | 0.06 | 0.06 | 86 | 1008.6 |
| 20260506140305 | 62 | 166 | 1.0 | 16.0 | 0.03 | 0.05 | 0.05 | 86 | 1008.6 |
| 20260506135805 | 62 | 201 | 3.0 | 9.0 | 0.03 | 0.05 | 0.05 | 86 | 1008.7 |
| 20260506135306 | 62 | 219 | 4.0 | 9.0 | 0.03 | 0.05 | 0.05 | 86 | 1008.7 |
| 20260506134805 | 62 | 173 | 3.0 | 12.0 | 0.03 | 0.05 | 0.05 | 86 | 1008.8 |
| 20260506134305 | 62 | 194 | 2.0 | 9.0 | 0.04 | 0.05 | 0.05 | 86 | 1008.7 |
| 20260506133805 | 62 | 233 | 3.0 | 10.0 | 0.03 | 0.04 | 0.04 | 85 | 1008.7 |
| 20260506133305 | 62 | 157 | 5.0 | 12.0 | 0.03 | 0.04 | 0.04 | 85 | 1008.8 |
| 20260506132805 | 62 | 155 | 3.0 | 8.0 | 0.03 | 0.04 | 0.04 | 84 | 1008.7 |
| 20260506132307 | 62 | 227 | 6.0 | 13.0 | 0.03 | 0.04 | 0.04 | 84 | 1008.7 |
| 20260506130305 | 62 | 209 | 3.0 | 8.0 | 0.02 | 0.02 | 0.02 | 83 | 1009.0 |
| 20260506125805 | 62 | 186 | 5.0 | 10.0 | 0.02 | 0.02 | 0.02 | 83 | 1009.0 |
| 20260506125306 | 62 | 227 | 6.0 | 12.0 | 0.02 | 0.02 | 0.02 | 82 | 1009.0 |
| 20260506124805 | 62 | 208 | 6.0 | 12.0 | 0.02 | 0.02 | 0.02 | 82 | 1009.0 |
| 20260506124305 | 62 | 168 | 3.0 | 10.0 | 0.01 | 0.01 | 0.01 | 82 | 1009.0 |
| 20260506123805 | 63 | 204 | 6.0 | 12.0 | 0.01 | 0.01 | 0.01 | 81 | 1009.1 |
| 20260506123304 | 63 | 206 | 7.0 | 12.0 | 0.01 | 0.01 | 0.01 | 81 | 1009.1 |
| 20260506122805 | 63 | 193 | 6.0 | 13.0 | 0.01 | 0.01 | 0.01 | 81 | 1009.1 |
| 20260506122306 | 63 | 231 | 3.0 | 9.0 | 0.01 | 0.01 | 0.01 | 81 | 1009.1 |
| 20260506121804 | 63 | 227 | 4.0 | 7.0 | 0.01 | 0.01 | 0.01 | 81 | 1009.0 |
| 20260506121305 | 63 | 160 | 6.0 | 12.0 | 0.01 | 0.01 | 0.01 | 80 | 1008.9 |
| 20260506120804 | 63 | 222 | 5.0 | 12.0 | 0.00 | 0.00 | 0.00 | 79 | 1009.0 |
| 20260506115805 | 63 | 214 | 7.0 | 16.0 | 0.00 | 0.00 | 0.00 | 78 | 1008.7 |
| 20260506114805 | 64 | 220 | 6.0 | 15.0 | 0.00 | 0.00 | 0.00 | 76 | 1008.7 |
| 20260506114304 | 64 | 201 | 5.0 | 15.0 | 0.00 | 0.00 | 0.00 | 76 | 1008.7 |
| 20260506113804 | 64 | 228 | 5.0 | 14.0 | 0.00 | 0.00 | 0.00 | 75 | 1008.7 |
| 20260506113305 | 64 | 178 | 7.0 | 14.0 | 0.00 | 0.00 | 0.00 | 74 | 1008.7 |
| 20260506112805 | 64 | 218 | 7.0 | 14.0 | 0.00 | 0.00 | 0.00 | 73 | 1008.6 |
| 20260506112306 | 64 | 202 | 5.0 | 12.0 | 0.00 | 0.00 | 0.00 | 73 | 1008.5 |
| 20260506111805 | 65 | 197 | 5.0 | 12.0 | 0.00 | 0.00 | 0.00 | 73 | 1008.5 |
| 20260506111304 | 65 | 182 | 6.0 | 17.0 | 0.00 | 0.00 | 0.00 | 73 | 1008.4 |
| 20260506110805 | 65 | 193 | 6.0 | 14.0 | 0.00 | 0.00 | 0.00 | 72 | 1008.4 |
| 20260506105305 | 65 | 160 | 6.0 | 17.0 | 0.00 | 0.00 | 0.00 | 72 | 1008.4 |
| 20260506104804 | 65 | 207 | 9.0 | 20.0 | 0.00 | 0.00 | 0.00 | 72 | 1008.4 |
| 20260506103304 | 65 | 198 | 6.0 | 17.0 | 0.00 | 0.00 | 0.00 | 71 | 1008.0 |
| 20260506102805 | 65 | 183 | 7.0 | 17.0 | 0.00 | 0.00 | 0.00 | 71 | 1008.1 |
| 20260506102306 | 65 | 185 | 5.0 | 13.0 | 0.00 | 0.00 | 0.00 | 71 | 1008.1 |
| 20260506101804 | 65 | 214 | 9.0 | 16.0 | 0.00 | 0.00 | 0.00 | 70 | 1008.0 |
| 20260506101304 | 65 | 168 | 8.0 | 15.0 | 0.00 | 0.00 | 0.00 | 70 | 1007.9 |
| 20260506100804 | 65 | 187 | 8.0 | 16.0 | 0.00 | 0.00 | 0.00 | 70 | 1007.9 |
| 20260506100305 | 65 | 146 | 8.0 | 14.0 | 0.00 | 0.00 | 0.00 | 70 | 1007.8 |
| 20260506095306 | 65 | 203 | 6.0 | 13.0 | 0.00 | 0.00 | 0.00 | 70 | 1007.8 |
| 20260506094805 | 66 | 210 | 6.0 | 15.0 | 0.00 | 0.00 | 0.00 | 69 | 1007.9 |
| 20260506094304 | 66 | 162 | 7.0 | 17.0 | 0.00 | 0.00 | 0.00 | 69 | 1008.0 |
| 20260506093804 | 66 | 189 | 6.0 | 16.0 | 0.00 | 0.00 | 0.00 | 69 | 1008.0 |
| 20260506093304 | 66 | 202 | 6.0 | 17.0 | 0.00 | 0.00 | 0.00 | 68 | 1008.0 |
| 20260506092804 | 66 | 190 | 5.0 | 14.0 | 0.00 | 0.00 | 0.00 | 68 | 1008.0 |
| 20260506091805 | 66 | 203 | 7.0 | 15.0 | 0.00 | 0.00 | 0.00 | 68 | 1008.0 |
| 20260506091304 | 66 | 165 | 5.0 | 13.0 | 0.00 | 0.00 | 0.00 | 68 | 1008.0 |
| 20260506090805 | 66 | 169 | 7.0 | 15.0 | 0.00 | 0.00 | 0.00 | 67 | 1008.1 |
| 20260506090304 | 66 | 181 | 9.0 | 20.0 | 0.00 | 0.00 | 0.00 | 67 | 1008.1 |
| 20260506085804 | 66 | 185 | 8.0 | 13.0 | 0.00 | 0.00 | 0.00 | 66 | 1008.1 |
| 20260506085306 | 66 | 158 | 9.0 | 16.0 | 0.00 | 0.00 | 0.00 | 66 | 1008.2 |
| 20260506084805 | 66 | 211 | 6.0 | 12.0 | 0.00 | 0.00 | 0.00 | 66 | 1008.2 |
| 20260506084304 | 66 | 184 | 5.0 | 12.0 | 0.00 | 0.00 | 0.00 | 65 | 1008.3 |
| 20260506083304 | 66 | 182 | 6.0 | 13.0 | 0.00 | 0.00 | 0.00 | 64 | 1008.3 |
| 20260506082804 | 67 | 222 | 4.0 | 12.0 | 0.00 | 0.00 | 0.00 | 64 | 1008.3 |
| 20260506082305 | 67 | 172 | 9.0 | 14.0 | 0.00 | 0.00 | 0.00 | 64 | 1008.3 |
| 20260506081805 | 67 | 219 | 7.0 | 14.0 | 0.00 | 0.00 | 0.00 | 63 | 1008.3 |
| 20260506081305 | 67 | 218 | 6.0 | 12.0 | 0.00 | 0.00 | 0.00 | 63 | 1008.3 |
| 20260506080804 | 67 | 204 | 6.0 | 10.0 | 0.00 | 0.00 | 0.00 | 63 | 1008.3 |
| 20260506080304 | 67 | 240 | 5.0 | 10.0 | 0.00 | 0.00 | 0.00 | 62 | 1008.3 |
| 20260506073304 | 68 | 177 | 9.0 | 15.0 | 0.00 | 0.00 | 0.00 | 60 | 1008.4 |
| 20260506072305 | 68 | 178 | 6.0 | 13.0 | 0.00 | 0.00 | 0.00 | 60 | 1008.5 |
| 20260506071304 | 68 | 163 | 7.0 | 14.0 | 0.00 | 0.00 | 0.00 | 60 | 1008.5 |
| 20260506070804 | 68 | 185 | 5.0 | 13.0 | 0.00 | 0.00 | 0.00 | 59 | 1008.6 |
| 20260506070304 | 68 | 202 | 7.0 | 13.0 | 0.00 | 0.00 | 0.00 | 59 | 1008.7 |
| 20260506062306 | 68 | 212 | 7.0 | 12.0 | 0.00 | 0.00 | 0.00 | 56 | 1009.0 |
| 20260506061805 | 68 | 161 | 6.0 | 12.0 | 0.00 | 0.00 | 0.00 | 56 | 1009.0 |
| 20260506061304 | 68 | 205 | 5.0 | 13.0 | 0.00 | 0.00 | 0.00 | 56 | 1009.0 |
| 20260506060804 | 69 | 231 | 4.0 | 14.0 | 0.00 | 0.00 | 0.00 | 56 | 1009.0 |
| 20260506060304 | 68 | 196 | 7.0 | 12.0 | 0.00 | 0.00 | 0.00 | 56 | 1009.0 |
| 20260506051304 | 68 | 181 | 7.0 | 13.0 | 0.00 | 0.00 | 0.00 | 54 | 1009.4 |
| 20260506050804 | 68 | 184 | 6.0 | 13.0 | 0.00 | 0.00 | 0.00 | 54 | 1009.3 |
| 20260506050304 | 68 | 200 | 5.0 | 14.0 | 0.00 | 0.00 | 0.00 | 54 | 1009.4 |
| 20260506044304 | 69 | 167 | 3.0 | 13.0 | 0.00 | 0.00 | 0.00 | 53 | 1009.5 |
| 20260506043804 | 69 | 168 | 5.0 | 14.0 | 0.00 | 0.00 | 0.00 | 53 | 1009.6 |
| 20260506043305 | 69 | 185 | 7.0 | 13.0 | 0.00 | 0.00 | 0.00 | 52 | 1009.5 |
| 20260506042305 | 69 | 165 | 7.0 | 13.0 | 0.00 | 0.00 | 0.00 | 52 | 1009.6 |
| 20260506041804 | 69 | 185 | 7.0 | 12.0 | 0.00 | 0.00 | 0.00 | 51 | 1009.6 |
| 20260506041304 | 69 | 185 | 6.0 | 15.0 | 0.00 | 0.00 | 0.00 | 51 | 1009.6 |
| 20260506040817 | 69 | 148 | 5.0 | 12.0 | 0.00 | 0.00 | 0.00 | 51 | 1009.6 |
| 20260506040304 | 69 | 180 | 7.0 | 13.0 | 0.00 | 0.00 | 0.00 | 51 | 1009.6 |
| 20260506035804 | 69 | 167 | 3.0 | 8.0 | 0.00 | 0.00 | 0.00 | 51 | 1009.6 |
| 20260506035306 | 69 | 155 | 5.0 | 10.0 | 0.00 | 0.00 | 0.00 | 50 | 1009.6 |
| 20260506034304 | 69 | 184 | 3.0 | 10.0 | 0.00 | 0.00 | 0.00 | 50 | 1009.5 |
| 20260506033304 | 69 | 192 | 3.0 | 10.0 | 0.00 | 0.00 | 0.00 | 51 | 1009.5 |
| 20260506032804 | 69 | 198 | 2.0 | 10.0 | 0.00 | 0.00 | 0.00 | 50 | 1009.5 |
| 20260506032305 | 69 | 185 | 5.0 | 8.0 | 0.00 | 0.00 | 0.00 | 50 | 1009.5 |
| 20260506031804 | 69 | 118 | 2.0 | 12.0 | 0.00 | 0.00 | 0.00 | 49 | 1009.5 |
| 20260506031304 | 69 | 148 | 3.0 | 8.0 | 0.00 | 0.00 | 0.00 | 50 | 1009.5 |
| 20260506030804 | 70 | 165 | 5.0 | 10.0 | 0.00 | 0.00 | 0.00 | 50 | 1009.5 |
| 20260506030304 | 70 | 150 | 3.0 | 10.0 | 0.00 | 0.00 | 0.00 | 49 | 1009.5 |
| 20260506025804 | 70 | 190 | 3.0 | 10.0 | 0.00 | 0.00 | 0.00 | 49 | 1009.5 |
| 20260506025305 | 70 | 192 | 4.0 | 12.0 | 0.00 | 0.00 | 0.00 | 49 | 1009.5 |
| 20260506024804 | 70 | 155 | 4.0 | 9.0 | 0.00 | 0.00 | 0.00 | 49 | 1009.5 |
| 20260506024304 | 70 | 163 | 5.0 | 12.0 | 0.00 | 0.00 | 0.00 | 49 | 1009.5 |
| 20260506023804 | 70 | 177 | 5.0 | 10.0 | 0.00 | 0.00 | 0.00 | 48 | 1009.5 |
| 20260506023303 | 70 | 156 | 4.0 | 10.0 | 0.00 | 0.00 | 0.00 | 48 | 1009.5 |
| 20260506022306 | 70 | 126 | 6.0 | 12.0 | 0.00 | 0.00 | 0.00 | 48 | 1009.5 |
| 20260506021804 | 71 | 179 | 3.0 | 12.0 | 0.00 | 0.00 | 0.00 | 47 | 1009.5 |
| 20260506021304 | 71 | 138 | 4.0 | 9.0 | 0.00 | 0.00 | 0.00 | 46 | 1009.5 |
| 20260506020804 | 71 | 164 | 5.0 | 12.0 | 0.00 | 0.00 | 0.00 | 46 | 1009.6 |
| 20260506020304 | 71 | 173 | 5.0 | 13.0 | 0.00 | 0.00 | 0.00 | 46 | 1009.6 |
| 20260506014806 | 71 | 153 | 7.0 | 12.0 | 0.00 | 0.00 | 0.00 | 45 | 1009.3 |
| 20260506014306 | 71 | 172 | 4.0 | 8.0 | 0.00 | 0.00 | 0.00 | 45 | 1009.3 |
| 20260506013806 | 71 | 150 | 4.0 | 10.0 | 0.00 | 0.00 | 0.00 | 45 | 1009.3 |
| 20260506013306 | 72 | 199 | 3.0 | 10.0 | 0.00 | 0.00 | 0.00 | 44 | 1009.3 |
| 20260506012805 | 72 | 157 | 2.0 | 8.0 | 0.00 | 0.00 | 0.00 | 44 | 1009.3 |
| 20260506012308 | 72 | 156 | 5.0 | 12.0 | 0.00 | 0.00 | 0.00 | 43 | 1009.2 |
| 20260506011306 | 73 | 181 | 5.0 | 12.0 | 0.00 | 0.00 | 0.00 | 42 | 1009.1 |
| 20260506010806 | 73 | 171 | 4.0 | 9.0 | 0.00 | 0.00 | 0.00 | 42 | 1009.0 |
| 20260506010306 | 73 | 150 | 5.0 | 10.0 | 0.00 | 0.00 | 0.00 | 42 | 1008.9 |
| 20260506005805 | 73 | 144 | 5.0 | 10.0 | 0.00 | 0.00 | 0.00 | 41 | 1008.8 |
| 20260506005306 | 73 | 187 | 3.0 | 9.0 | 0.00 | 0.00 | 0.00 | 41 | 1008.8 |
| 20260506004806 | 74 | 118 | 4.0 | 12.0 | 0.00 | 0.00 | 0.00 | 40 | 1008.8 |
| 20260506004306 | 74 | 132 | 5.0 | 9.0 | 0.00 | 0.00 | 0.00 | 40 | 1008.7 |
| 20260506003806 | 74 | 183 | 6.0 | 12.0 | 0.00 | 0.00 | 0.00 | 40 | 1008.7 |
| 20260506003305 | 74 | 166 | 2.0 | 10.0 | 0.00 | 0.00 | 0.00 | 40 | 1008.6 |
| 20260506002806 | 75 | 162 | 5.0 | 9.0 | 0.00 | 0.00 | 0.00 | 39 | 1008.6 |
| 20260506001806 | 75 | 172 | 5.0 | 13.0 | 0.00 | 0.00 | 0.00 | 40 | 1008.5 |
| 20260506001306 | 75 | 204 | 2.0 | 12.0 | 0.00 | 0.00 | 0.00 | 39 | 1008.5 |
| 20260506000806 | 75 | 165 | 6.0 | 10.0 | 0.00 | 0.00 | 0.00 | 38 | 1008.4 |
| 20260506000306 | 76 | 191 | 4.0 | 12.0 | 0.00 | 0.00 | 0.00 | 38 | 1008.4 |
| 20260505233806 | 76 | 166 | 5.0 | 12.0 | 0.00 | 0.00 | 0.00 | 38 | 1008.1 |
| 20260505233306 | 76 | 152 | 9.0 | 16.0 | 0.00 | 0.00 | 0.00 | 38 | 1008.1 |
| 20260505231805 | 77 | 201 | 7.0 | 14.0 | 0.00 | 0.00 | 0.00 | 38 | 1008.1 |
| 20260505231306 | 77 | 173 | 5.0 | 9.0 | 0.00 | 0.00 | 0.00 | 38 | 1008.0 |
| 20260505230805 | 77 | 228 | 5.0 | 14.0 | 0.00 | 0.00 | 0.00 | 38 | 1008.0 |
| 20260505230306 | 77 | 173 | 6.0 | 16.0 | 0.00 | 0.00 | 0.00 | 38 | 1008.0 |
| 20260505225806 | 77 | 166 | 6.0 | 15.0 | 0.00 | 0.00 | 0.00 | 38 | 1008.0 |
| 20260505225306 | 78 | 241 | 4.0 | 18.0 | 0.00 | 0.00 | 0.00 | 38 | 1008.0 |
| 20260505224806 | 78 | 182 | 4.0 | 10.0 | 0.00 | 0.00 | 0.00 | 37 | 1008.1 |
| 20260505224306 | 78 | 154 | 3.0 | 12.0 | 0.00 | 0.00 | 0.00 | 37 | 1008.1 |
| 20260505223306 | 78 | 173 | 8.0 | 13.0 | 0.00 | 0.00 | 0.00 | 36 | 1008.2 |
| 20260505222805 | 78 | 198 | 5.0 | 10.0 | 0.00 | 0.00 | 0.00 | 38 | 1008.1 |
| 20260505222306 | 78 | 205 | 9.0 | 16.0 | 0.00 | 0.00 | 0.00 | 37 | 1008.0 |
| 20260505220806 | 79 | 171 | 6.0 | 18.0 | 0.00 | 0.00 | 0.00 | 36 | 1008.1 |
| 20260505220306 | 79 | 216 | 11.0 | 20.0 | 0.00 | 0.00 | 0.00 | 35 | 1008.0 |
| 20260505215806 | 79 | 165 | 12.0 | 26.0 | 0.00 | 0.00 | 0.00 | 36 | 1008.0 |
| 20260505214805 | 80 | 203 | 7.0 | 20.0 | 0.00 | 0.00 | 0.00 | 36 | 1007.9 |
| 20260505214305 | 80 | 205 | 9.0 | 20.0 | 0.00 | 0.00 | 0.00 | 37 | 1007.9 |
| 20260505213805 | 80 | 172 | 10.0 | 17.0 | 0.00 | 0.00 | 0.00 | 36 | 1007.9 |
| 20260505213306 | 80 | 197 | 10.0 | 17.0 | 0.00 | 0.00 | 0.00 | 36 | 1007.8 |
| 20260505212806 | 80 | 184 | 9.0 | 20.0 | 0.00 | 0.00 | 0.00 | 36 | 1007.8 |
| 20260505212306 | 81 | 170 | 8.0 | 20.0 | 0.00 | 0.00 | 0.00 | 35 | 1007.9 |
| 20260505211806 | 81 | 202 | 7.0 | 16.0 | 0.00 | 0.00 | 0.00 | 37 | 1007.9 |
| 20260505211306 | 81 | 201 | 7.0 | 20.0 | 0.00 | 0.00 | 0.00 | 36 | 1007.8 |
| 20260505210805 | 81 | 209 | 6.0 | 16.0 | 0.00 | 0.00 | 0.00 | 36 | 1007.7 |
| 20260505210306 | 81 | 175 | 8.0 | 20.0 | 0.00 | 0.00 | 0.00 | 36 | 1007.8 |
| 20260505205805 | 81 | 200 | 14.0 | 26.0 | 0.00 | 0.00 | 0.00 | 35 | 1007.7 |
| 20260505204805 | 80 | 200 | 10.0 | 22.0 | 0.00 | 0.00 | 0.00 | 35 | 1007.7 |
| 20260505204306 | 81 | 207 | 3.0 | 12.0 | 0.00 | 0.00 | 0.00 | 39 | 1007.7 |
| 20260505203806 | 80 | 176 | 9.0 | 20.0 | 0.00 | 0.00 | 0.00 | 36 | 1007.7 |
| 20260505203305 | 80 | 190 | 6.0 | 20.0 | 0.00 | 0.00 | 0.00 | 36 | 1007.8 |
| 20260505202805 | 80 | 188 | 9.0 | 23.0 | 0.00 | 0.00 | 0.00 | 36 | 1007.8 |
| 20260505202307 | 80 | 216 | 5.0 | 14.0 | 0.00 | 0.00 | 0.00 | 37 | 1007.8 |